Time;durP1;ratioP1;P1;durP2;ratioP2;P2;SDS_P1;SDS_P2;PMS_P1;PMS_P2;Temp;Humidity;BMP_temperature;BMP_pressure;BME280_temperature;BME280_humidity;BME280_pressure;Samples;Min_cycle;Max_cycle;Signal;HPM_P1;HPM_P2
2022/09/06 00:00:15;;;;;;;2.20;2.00;;;23.40;73.90;;;;;;5041240;28;20225;-70
2022/09/06 00:02:42;;;;;;;2.17;1.92;;;23.40;73.90;;;;;;5034720;28;20198;-70
2022/09/06 00:05:11;;;;;;;2.33;2.13;;;23.40;74.00;;;;;;5019653;28;20199;-70
2022/09/06 00:07:37;;;;;;;2.53;2.33;;;23.40;74.00;;;;;;5027777;28;20230;-70
2022/09/06 00:10:04;;;;;;;2.92;2.55;;;23.40;74.00;;;;;;5039473;28;20223;-70
2022/09/06 00:12:31;;;;;;;3.03;2.20;;;23.40;74.00;;;;;;5039325;28;20253;-70
2022/09/06 00:14:56;;;;;;;2.58;2.30;;;23.40;74.00;;;;;;5039946;28;20193;-70
2022/09/06 00:17:22;;;;;;;2.75;2.10;;;23.40;74.00;;;;;;5039511;28;20183;-70
2022/09/06 00:19:48;;;;;;;2.15;2.05;;;23.40;74.00;;;;;;5022745;28;20269;-70
2022/09/06 00:22:14;;;;;;;2.47;2.20;;;23.40;74.00;;;;;;5035674;28;20195;-70
2022/09/06 00:24:40;;;;;;;2.42;2.20;;;23.30;73.80;;;;;;5036258;28;20191;-70
2022/09/06 00:27:07;;;;;;;2.38;2.17;;;23.40;74.00;;;;;;5038293;28;20245;-71
2022/09/06 00:29:34;;;;;;;2.28;2.05;;;23.40;74.00;;;;;;5039739;28;20206;-70
2022/09/06 00:32:00;;;;;;;3.00;2.20;;;23.40;74.00;;;;;;5038827;28;20184;-70
2022/09/06 00:34:27;;;;;;;2.00;1.90;;;23.30;73.80;;;;;;5040846;28;20218;-70
2022/09/06 00:36:53;;;;;;;2.30;2.10;;;23.40;73.90;;;;;;5040513;28;20554;-70
2022/09/06 00:39:19;;;;;;;2.80;2.30;;;23.30;73.70;;;;;;5039471;28;20246;-70
2022/09/06 00:41:45;;;;;;;2.50;2.30;;;23.30;73.60;;;;;;5039589;28;20184;-70
2022/09/06 00:44:11;;;;;;;2.75;2.30;;;23.40;73.80;;;;;;5023253;28;20191;-70
2022/09/06 00:46:41;;;;;;;2.25;2.10;;;23.40;73.70;;;;;;5022116;28;20211;-70
2022/09/06 00:49:23;;;;;;;3.33;2.20;;;23.30;73.60;;;;;;5038143;28;20176;-70
2022/09/06 00:51:53;;;;;;;2.63;2.17;;;23.30;73.60;;;;;;5022041;28;20195;-70
2022/09/06 00:54:20;;;;;;;2.85;2.55;;;23.30;73.70;;;;;;5038028;28;20226;-70
2022/09/06 00:56:46;;;;;;;2.55;2.35;;;23.30;73.60;;;;;;5021637;28;20191;-70
2022/09/06 00:59:12;;;;;;;2.17;1.98;;;23.30;73.80;;;;;;5038788;28;20201;-70
2022/09/06 01:01:38;;;;;;;1.83;1.73;;;23.30;73.70;;;;;;5039016;28;20639;-70
2022/09/06 01:04:05;;;;;;;2.17;2.05;;;23.30;73.70;;;;;;5021372;28;20218;-70
2022/09/06 01:07:09;;;;;;;2.30;2.03;;;23.30;74.50;;;;;;5021211;28;20198;-70
2022/09/06 01:09:58;;;;;;;2.22;2.03;;;23.30;73.70;;;;;;5037241;28;20215;-71
2022/09/06 01:12:52;;;;;;;2.53;2.33;;;23.30;73.60;;;;;;5037975;28;20287;-70
2022/09/06 01:15:37;;;;;;;2.08;1.88;;;23.30;73.50;;;;;;5038479;28;20180;-70
2022/09/06 01:18:35;;;;;;;1.88;1.75;;;23.30;73.70;;;;;;5036771;28;20191;-71
2022/09/06 01:21:06;;;;;;;2.00;1.90;;;23.30;73.70;;;;;;5039080;28;20269;-70
2022/09/06 01:23:56;;;;;;;2.00;1.90;;;23.30;73.60;;;;;;5037589;28;20214;-70
2022/09/06 01:26:51;;;;;;;2.35;2.15;;;23.30;73.50;;;;;;5047821;28;20210;-70
2022/09/06 01:29:40;;;;;;;3.10;2.03;;;23.30;73.40;;;;;;5036666;28;20222;-70
2022/09/06 01:32:33;;;;;;;2.38;1.92;;;23.30;73.50;;;;;;5020444;28;20187;-70
2022/09/06 01:35:26;;;;;;;2.15;1.95;;;23.30;73.60;;;;;;5038121;28;20234;-70
2022/09/06 01:37:53;;;;;;;4.50;2.45;;;23.30;73.50;;;;;;5038874;28;20218;-70
2022/09/06 01:40:18;;;;;;;2.83;1.90;;;23.30;73.50;;;;;;5037201;28;20195;-70
2022/09/06 01:42:47;;;;;;;2.90;1.73;;;23.30;74.30;;;;;;5053212;28;20198;-70
2022/09/06 01:45:58;;;;;;;3.30;1.95;;;23.30;73.50;;;;;;5037536;28;20237;-70
2022/09/06 01:49:02;;;;;;;2.00;1.80;;;23.20;73.40;;;;;;5031837;28;20191;-70
2022/09/06 01:51:51;;;;;;;2.05;1.85;;;23.30;73.50;;;;;;5021489;28;20222;-70
2022/09/06 01:54:57;;;;;;;2.17;1.90;;;23.30;73.50;;;;;;5049141;28;20341;-70
2022/09/06 01:57:53;;;;;;;1.85;1.75;;;23.20;73.40;;;;;;5019316;28;20551;-70
2022/09/06 02:00:24;;;;;;;2.10;1.98;;;23.20;73.40;;;;;;5018644;28;20203;-70
2022/09/06 02:03:10;;;;;;;1.92;1.77;;;23.20;73.40;;;;;;5026733;28;20203;-70
2022/09/06 02:05:54;;;;;;;2.47;2.22;;;23.20;73.40;;;;;;5054366;28;20195;-70
2022/09/06 02:08:34;;;;;;;1.95;1.83;;;23.20;73.40;;;;;;5021164;28;20286;-71
2022/09/06 02:11:04;;;;;;;1.63;1.48;;;23.20;73.40;;;;;;5005989;28;20233;-70
2022/09/06 02:13:54;;;;;;;2.15;1.95;;;23.20;73.30;;;;;;5037727;28;20222;-70
2022/09/06 02:16:25;;;;;;;1.80;1.70;;;23.20;73.30;;;;;;5039084;28;20172;-70
2022/09/06 02:19:02;;;;;;;2.35;1.98;;;23.20;73.40;;;;;;5038303;28;20199;-70
2022/09/06 02:21:39;;;;;;;1.90;1.80;;;23.20;73.40;;;;;;5021464;28;20218;-70
2022/09/06 02:24:11;;;;;;;2.13;1.98;;;23.20;73.40;;;;;;5037297;28;20670;-70
2022/09/06 02:26:42;;;;;;;2.15;2.05;;;23.20;73.40;;;;;;5037259;28;20713;-70
2022/09/06 02:29:08;;;;;;;1.98;1.88;;;23.20;73.30;;;;;;5037143;28;20186;-70
2022/09/06 02:31:43;;;;;;;1.90;1.80;;;23.20;73.20;;;;;;5036430;28;20172;-70
2022/09/06 02:34:14;;;;;;;1.67;1.58;;;23.20;73.20;;;;;;5037007;28;20262;-70
2022/09/06 02:36:40;;;;;;;1.88;1.77;;;23.20;73.20;;;;;;5037592;28;20231;-70
2022/09/06 02:39:06;;;;;;;1.80;1.70;;;23.20;73.10;;;;;;5024893;28;20199;-70
2022/09/06 02:41:33;;;;;;;1.90;1.80;;;23.20;73.20;;;;;;5022207;28;20184;-70
2022/09/06 02:43:59;;;;;;;1.95;1.83;;;23.20;73.20;;;;;;5041825;28;20168;-70
2022/09/06 02:46:25;;;;;;;2.15;1.75;;;23.20;73.40;;;;;;5040471;28;20187;-70
2022/09/06 02:48:51;;;;;;;1.83;1.73;;;23.20;73.30;;;;;;5040631;28;20187;-71
2022/09/06 02:51:17;;;;;;;2.13;2.03;;;23.20;73.30;;;;;;5041282;28;20222;-70
2022/09/06 02:53:43;;;;;;;1.92;1.77;;;23.20;73.20;;;;;;5040932;28;20211;-70
2022/09/06 02:56:09;;;;;;;1.90;1.70;;;23.20;73.30;;;;;;5041594;28;20184;-70
2022/09/06 02:58:34;;;;;;;2.95;1.73;;;23.20;73.20;;;;;;5040651;28;20187;-71
2022/09/06 03:01:00;;;;;;;1.80;1.70;;;23.20;73.20;;;;;;5033924;28;20203;-70
2022/09/06 03:03:27;;;;;;;1.67;1.58;;;23.20;73.30;;;;;;5050949;28;20198;-70
2022/09/06 03:05:54;;;;;;;1.70;1.60;;;23.20;73.20;;;;;;5039593;28;20241;-70
2022/09/06 03:08:24;;;;;;;2.03;1.45;;;23.20;73.20;;;;;;5039387;28;20211;-71
2022/09/06 03:10:55;;;;;;;1.70;1.60;;;23.10;73.10;;;;;;5022400;28;20230;-71
2022/09/06 03:13:25;;;;;;;2.58;1.92;;;23.20;73.20;;;;;;5039372;28;20276;-70
2022/09/06 03:15:56;;;;;;;2.10;1.90;;;23.10;73.10;;;;;;5025480;28;20191;-70
2022/09/06 03:18:24;;;;;;;2.83;1.77;;;23.10;73.00;;;;;;5043127;28;20194;-70
2022/09/06 03:20:52;;;;;;;1.50;1.40;;;23.20;73.10;;;;;;5027328;28;20195;-70
2022/09/06 03:23:19;;;;;;;1.70;1.60;;;23.10;73.00;;;;;;5035824;28;20210;-71
2022/09/06 03:25:46;;;;;;;1.50;1.40;;;23.10;73.10;;;;;;5041113;28;20647;-70
2022/09/06 03:28:12;;;;;;;1.80;1.70;;;23.10;73.00;;;;;;5041400;28;20275;-70
2022/09/06 03:30:39;;;;;;;1.67;1.50;;;23.10;73.10;;;;;;5041352;28;20214;-70
2022/09/06 03:33:05;;;;;;;1.75;1.65;;;23.10;73.20;;;;;;5041651;28;20222;-70
2022/09/06 03:35:31;;;;;;;1.80;1.70;;;23.10;74.00;;;;;;5024816;28;20647;-70
2022/09/06 03:37:57;;;;;;;1.60;1.50;;;23.10;73.90;;;;;;5025120;28;20383;-70
2022/09/06 03:40:22;;;;;;;1.40;1.30;;;23.10;73.30;;;;;;5041604;28;20195;-70
2022/09/06 03:42:48;;;;;;;1.52;1.42;;;23.10;73.30;;;;;;5039394;28;20278;-70
2022/09/06 03:45:14;;;;;;;2.00;1.90;;;23.10;73.10;;;;;;5039994;28;20543;-70
2022/09/06 03:47:40;;;;;;;2.47;1.88;;;23.10;73.20;;;;;;5041215;28;20180;-71
2022/09/06 03:50:07;;;;;;;1.95;1.85;;;23.10;73.10;;;;;;5056710;28;20254;-70
2022/09/06 03:52:33;;;;;;;2.05;1.75;;;23.10;73.10;;;;;;5022577;28;20195;-70
2022/09/06 03:54:59;;;;;;;1.55;1.45;;;23.20;73.30;;;;;;5041062;28;20237;-70
2022/09/06 03:57:24;;;;;;;2.13;1.88;;;23.10;73.30;;;;;;5043166;28;20183;-70
2022/09/06 03:59:50;;;;;;;1.90;1.80;;;23.10;73.20;;;;;;5040067;28;20207;-70
2022/09/06 04:02:16;;;;;;;1.88;1.77;;;23.10;73.20;;;;;;5040173;28;20192;-70
2022/09/06 04:04:42;;;;;;;2.08;1.88;;;23.10;73.20;;;;;;5039610;28;20179;-70
2022/09/06 04:07:08;;;;;;;2.42;1.98;;;23.10;73.20;;;;;;5023223;28;20183;-70
2022/09/06 04:09:33;;;;;;;2.33;2.13;;;23.10;73.20;;;;;;5038987;28;20203;-70
2022/09/06 04:11:59;;;;;;;2.10;1.88;;;23.10;73.20;;;;;;5023491;28;20186;-70
2022/09/06 04:14:25;;;;;;;1.70;1.60;;;23.10;73.20;;;;;;5040915;28;20226;-70
2022/09/06 04:16:51;;;;;;;2.00;1.90;;;23.10;73.20;;;;;;5040114;28;20190;-70
2022/09/06 04:19:17;;;;;;;2.00;1.90;;;23.10;73.20;;;;;;5022905;28;20199;-70
2022/09/06 04:21:42;;;;;;;2.00;1.88;;;23.10;73.20;;;;;;5039914;28;20187;-70
2022/09/06 04:24:08;;;;;;;3.55;1.90;;;23.10;73.20;;;;;;5056427;28;20267;-69
2022/09/06 04:26:34;;;;;;;1.63;1.52;;;23.10;73.20;;;;;;5039943;28;20179;-70
2022/09/06 04:29:00;;;;;;;1.70;1.52;;;23.10;73.10;;;;;;5023880;28;20179;-70
2022/09/06 04:31:26;;;;;;;1.95;1.77;;;23.20;73.30;;;;;;5023287;28;20289;-70
2022/09/06 04:33:52;;;;;;;1.65;1.55;;;23.10;73.20;;;;;;5039860;28;20215;-70
2022/09/06 04:36:18;;;;;;;2.10;1.90;;;23.10;73.20;;;;;;5024549;28;20226;-70
2022/09/06 04:38:44;;;;;;;1.80;1.70;;;23.10;73.10;;;;;;5040457;28;20270;-70
2022/09/06 04:41:14;;;;;;;1.60;1.50;;;23.10;73.20;;;;;;5029861;28;20215;-70
2022/09/06 04:43:41;;;;;;;1.80;1.70;;;23.20;73.30;;;;;;5003745;28;20185;-70
2022/09/06 04:46:27;;;;;;;1.80;1.70;;;23.20;73.20;;;;;;5036021;28;20663;-70
2022/09/06 04:48:54;;;;;;;1.80;1.70;;;23.10;73.10;;;;;;5002907;28;20180;-71
2022/09/06 04:51:21;;;;;;;2.20;2.00;;;23.10;73.10;;;;;;5035869;28;20227;-70
2022/09/06 04:53:47;;;;;;;1.90;1.80;;;23.10;73.10;;;;;;5037412;28;20617;-71
2022/09/06 04:56:16;;;;;;;1.88;1.75;;;23.10;73.10;;;;;;5022626;28;20211;-70
2022/09/06 04:58:45;;;;;;;2.08;1.98;;;23.20;73.20;;;;;;5023161;28;20191;-70
2022/09/06 05:01:11;;;;;;;2.20;2.10;;;23.10;73.10;;;;;;5038647;28;20211;-70
2022/09/06 05:03:37;;;;;;;2.15;2.05;;;23.10;73.00;;;;;;5038956;28;20222;-70
2022/09/06 05:06:10;;;;;;;2.22;2.08;;;23.10;73.10;;;;;;5039254;28;20183;-70
2022/09/06 05:08:40;;;;;;;2.00;1.90;;;23.10;73.00;;;;;;5022734;28;20378;-70
2022/09/06 05:11:07;;;;;;;1.88;1.77;;;23.10;73.10;;;;;;5022435;28;20211;-70
2022/09/06 05:13:34;;;;;;;1.92;1.83;;;23.10;73.10;;;;;;5022058;28;20218;-70
2022/09/06 05:16:06;;;;;;;1.95;1.85;;;23.10;73.10;;;;;;5039507;28;20188;-70
2022/09/06 05:18:33;;;;;;;1.80;1.70;;;23.10;73.10;;;;;;5039608;28;20310;-70
2022/09/06 05:20:58;;;;;;;2.05;1.85;;;23.10;73.10;;;;;;5039008;28;20233;-70
2022/09/06 05:23:25;;;;;;;1.75;1.65;;;23.10;73.10;;;;;;5020241;28;20195;-70
2022/09/06 05:25:52;;;;;;;1.77;1.67;;;23.10;73.10;;;;;;5054125;28;20187;-70
2022/09/06 05:28:19;;;;;;;1.70;1.60;;;23.10;73.10;;;;;;5037426;28;20186;-70
2022/09/06 05:30:45;;;;;;;1.73;1.60;;;23.10;73.10;;;;;;5021577;28;20207;-70
2022/09/06 05:33:17;;;;;;;1.85;1.75;;;23.10;73.20;;;;;;5021948;28;20282;-70
2022/09/06 05:35:43;;;;;;;3.63;1.90;;;23.10;73.20;;;;;;5020249;28;20184;-70
2022/09/06 05:38:09;;;;;;;2.15;2.00;;;23.10;73.20;;;;;;5052216;28;20187;-70
2022/09/06 05:40:35;;;;;;;4.22;2.03;;;23.10;73.20;;;;;;5019758;28;20226;-70
2022/09/06 05:43:01;;;;;;;3.25;2.10;;;23.10;73.20;;;;;;5036421;28;20191;-71
2022/09/06 05:45:26;;;;;;;3.67;2.08;;;23.10;73.30;;;;;;5035500;28;20215;-70
2022/09/06 05:47:52;;;;;;;7.22;2.03;;;23.10;73.30;;;;;;5037929;28;20545;-70
2022/09/06 05:50:18;;;;;;;6.07;2.60;;;23.10;73.60;;;;;;5037005;28;20222;-70
2022/09/06 05:52:44;;;;;;;5.57;2.40;;;23.10;73.60;;;;;;5037032;28;20195;-70
2022/09/06 05:55:10;;;;;;;4.70;2.03;;;23.10;73.60;;;;;;5036156;28;20190;-71
2022/09/06 05:57:36;;;;;;;6.60;2.20;;;23.10;73.70;;;;;;5021608;28;20632;-71
2022/09/06 06:00:04;;;;;;;5.60;2.50;;;23.10;73.80;;;;;;5037110;28;20206;-71
2022/09/06 06:02:37;;;;;;;3.80;2.20;;;23.10;73.80;;;;;;5034422;28;20174;-71
2022/09/06 06:05:03;;;;;;;4.95;2.13;;;23.10;73.90;;;;;;5033840;28;20187;-70
2022/09/06 06:07:29;;;;;;;3.05;1.83;;;23.10;74.00;;;;;;5033028;28;20681;-70
2022/09/06 06:09:54;;;;;;;3.72;2.35;;;23.10;73.90;;;;;;5031740;28;20207;-70
2022/09/06 06:12:20;;;;;;;3.78;2.05;;;23.10;74.00;;;;;;5034015;28;20186;-71
2022/09/06 06:14:46;;;;;;;4.60;2.65;;;23.10;74.00;;;;;;5033738;28;20230;-74
2022/09/06 06:17:12;;;;;;;4.80;2.50;;;23.10;74.00;;;;;;5034572;28;20206;-71
2022/09/06 06:19:38;;;;;;;6.90;2.70;;;23.10;74.10;;;;;;5018476;28;20706;-71
2022/09/06 06:22:04;;;;;;;4.72;2.40;;;23.10;74.00;;;;;;5017357;28;20191;-71
2022/09/06 06:24:30;;;;;;;4.00;2.20;;;23.00;74.00;;;;;;5035940;28;20269;-71
2022/09/06 06:26:56;;;;;;;3.63;1.98;;;22.90;74.00;;;;;;5018779;28;20191;-71
2022/09/06 06:29:24;;;;;;;7.43;2.80;;;22.90;74.10;;;;;;5018149;28;20205;-71
2022/09/06 06:31:49;;;;;;;6.78;3.10;;;22.90;74.20;;;;;;5017886;28;20210;-71
2022/09/06 06:34:19;;;;;;;4.25;3.10;;;22.90;74.20;;;;;;5018637;28;20585;-71
2022/09/06 06:36:45;;;;;;;7.43;3.47;;;22.80;74.30;;;;;;5035887;28;20179;-70
2022/09/06 06:39:11;;;;;;;3.60;2.90;;;22.80;74.50;;;;;;5019016;28;20651;-70
2022/09/06 06:41:37;;;;;;;4.10;3.33;;;22.80;74.60;;;;;;5018842;28;20242;-69
2022/09/06 06:44:20;;;;;;;4.72;3.42;;;22.80;74.80;;;;;;5035447;28;20179;-71
2022/09/06 06:46:46;;;;;;;3.45;3.25;;;22.80;75.00;;;;;;5035196;28;20655;-70
2022/09/06 06:49:11;;;;;;;3.63;3.17;;;22.90;75.30;;;;;;5019453;28;20191;-70
2022/09/06 06:51:38;;;;;;;3.50;3.20;;;22.80;75.40;;;;;;5033050;28;20189;-70
2022/09/06 06:54:04;;;;;;;3.50;3.20;;;22.80;75.60;;;;;;5034372;28;20233;-70
2022/09/06 06:56:34;;;;;;;3.20;3.00;;;22.80;75.80;;;;;;5036166;28;20209;-70
2022/09/06 06:59:03;;;;;;;3.50;3.10;;;22.80;76.00;;;;;;5019696;28;20167;-71
2022/09/06 07:01:32;;;;;;;3.53;3.22;;;22.80;76.30;;;;;;5035686;28;20227;-71
2022/09/06 07:03:58;;;;;;;4.28;3.42;;;22.80;75.90;;;;;;5034233;28;20198;-70
2022/09/06 07:06:26;;;;;;;3.55;3.10;;;22.80;76.50;;;;;;5036156;28;20175;-70
2022/09/06 07:08:52;;;;;;;3.40;3.10;;;22.90;77.00;;;;;;5034450;28;20187;-71
2022/09/06 07:11:18;;;;;;;5.50;3.60;;;22.90;77.10;;;;;;5035793;28;20285;-71
2022/09/06 07:13:45;;;;;;;4.13;3.80;;;22.90;77.10;;;;;;5034921;28;20223;-70
2022/09/06 07:16:23;;;;;;;3.78;3.47;;;22.90;77.10;;;;;;5034608;28;20183;-71
2022/09/06 07:18:55;;;;;;;6.63;3.58;;;22.90;76.90;;;;;;5034972;28;20202;-70
2022/09/06 07:21:25;;;;;;;3.88;3.55;;;22.90;77.30;;;;;;5035288;28;20211;-70
2022/09/06 07:23:55;;;;;;;4.82;3.67;;;22.90;78.40;;;;;;5020630;28;20249;-71
2022/09/06 07:26:28;;;;;;;4.05;3.65;;;22.90;77.90;;;;;;5024696;28;20198;-70
2022/09/06 07:29:03;;;;;;;3.85;3.55;;;22.90;77.30;;;;;;5055724;28;20221;-70
2022/09/06 07:31:31;;;;;;;4.82;3.90;;;23.00;77.90;;;;;;5040404;28;20206;-71
2022/09/06 07:33:57;;;;;;;3.67;3.35;;;23.00;77.10;;;;;;5034968;28;20211;-70
2022/09/06 07:36:22;;;;;;;5.40;3.88;;;23.10;77.20;;;;;;5003433;28;20183;-71
2022/09/06 07:38:50;;;;;;;5.18;3.47;;;23.10;77.20;;;;;;5021264;28;20184;-71
2022/09/06 07:41:17;;;;;;;8.52;3.20;;;23.20;77.30;;;;;;5041351;28;20200;-71
2022/09/06 07:43:44;;;;;;;4.07;3.60;;;23.20;77.20;;;;;;5038589;28;20286;-71
2022/09/06 07:46:16;;;;;;;4.47;3.65;;;23.20;77.20;;;;;;5039287;28;20673;-72
2022/09/06 07:48:45;;;;;;;4.90;3.40;;;23.20;77.10;;;;;;5039015;28;20241;-71
2022/09/06 07:51:21;;;;;;;4.30;3.30;;;23.20;77.20;;;;;;5039629;28;20199;-71
2022/09/06 07:53:54;;;;;;;4.30;3.47;;;23.20;77.10;;;;;;5021910;28;20226;-71
2022/09/06 07:56:22;;;;;;;5.50;3.65;;;23.20;77.10;;;;;;5022922;28;20179;-71
2022/09/06 07:58:49;;;;;;;4.07;3.70;;;23.30;77.00;;;;;;5040087;28;20250;-71
2022/09/06 08:01:26;;;;;;;6.30;3.28;;;23.30;76.80;;;;;;5038935;28;20237;-71
2022/09/06 08:03:53;;;;;;;4.50;3.53;;;23.30;76.50;;;;;;5038574;28;20183;-71
2022/09/06 08:06:21;;;;;;;3.55;3.25;;;23.40;76.60;;;;;;5039871;28;20191;-71
2022/09/06 08:08:48;;;;;;;4.28;3.63;;;23.40;76.60;;;;;;5039533;28;20179;-71
2022/09/06 08:11:14;;;;;;;4.50;3.40;;;23.40;76.30;;;;;;5038864;28;20234;-71
2022/09/06 08:13:41;;;;;;;3.50;3.28;;;23.40;76.20;;;;;;5038954;28;20211;-71
2022/09/06 08:16:10;;;;;;;3.60;3.30;;;23.40;76.20;;;;;;5038412;28;20259;-71
2022/09/06 08:18:37;;;;;;;4.00;3.30;;;23.40;76.10;;;;;;5038273;28;20191;-71
2022/09/06 08:21:12;;;;;;;4.10;3.10;;;23.50;76.10;;;;;;5038391;28;20234;-71
2022/09/06 08:23:43;;;;;;;3.88;3.33;;;23.50;76.00;;;;;;5038501;28;20392;-71
2022/09/06 08:26:09;;;;;;;5.68;3.35;;;23.50;76.00;;;;;;5021320;28;20236;-70
2022/09/06 08:28:35;;;;;;;3.70;3.17;;;23.50;76.00;;;;;;5038392;28;20179;-70
2022/09/06 08:31:13;;;;;;;3.53;3.20;;;23.40;75.90;;;;;;5037496;28;20238;-71
2022/09/06 08:33:41;;;;;;;3.20;2.90;;;23.50;76.00;;;;;;5036768;28;20207;-71
2022/09/06 08:36:09;;;;;;;4.47;3.17;;;23.50;76.00;;;;;;5036806;28;20183;-71
2022/09/06 08:38:35;;;;;;;3.00;2.80;;;23.50;76.00;;;;;;5021114;28;20199;-71
2022/09/06 08:41:21;;;;;;;3.88;3.47;;;23.50;75.90;;;;;;5038867;28;20203;-71
2022/09/06 08:44:05;;;;;;;4.03;2.92;;;23.50;76.00;;;;;;5037033;28;20274;-71
2022/09/06 08:46:53;;;;;;;3.45;3.13;;;23.50;76.00;;;;;;5037063;28;20194;-71
2022/09/06 08:49:19;;;;;;;3.15;2.85;;;23.50;76.00;;;;;;5037482;28;20191;-71
2022/09/06 08:51:47;;;;;;;3.17;2.95;;;23.50;76.10;;;;;;5038226;28;20192;-70
2022/09/06 08:54:16;;;;;;;2.88;2.67;;;23.50;76.10;;;;;;5037972;28;20223;-71
2022/09/06 08:57:22;;;;;;;3.42;3.15;;;23.50;76.10;;;;;;5036538;28;20202;-71
2022/09/06 08:59:55;;;;;;;2.90;2.70;;;23.50;76.30;;;;;;5017757;28;20242;-71
2022/09/06 09:02:21;;;;;;;3.00;2.80;;;23.50;76.10;;;;;;5035854;28;20270;-72
2022/09/06 09:05:03;;;;;;;3.38;3.08;;;23.50;76.00;;;;;;5020111;28;20282;-71
2022/09/06 09:08:10;;;;;;;2.90;2.50;;;23.50;76.00;;;;;;5036481;28;20548;-71
2022/09/06 09:10:52;;;;;;;3.38;3.08;;;23.60;76.10;;;;;;5003548;28;20242;-70
2022/09/06 09:13:54;;;;;;;3.33;2.85;;;23.60;76.80;;;;;;5035792;28;20282;-71
2022/09/06 09:16:21;;;;;;;3.58;3.00;;;23.60;76.10;;;;;;5034120;28;20237;-71
2022/09/06 09:19:05;;;;;;;3.28;3.05;;;23.60;76.10;;;;;;5036175;28;20198;-70
2022/09/06 09:21:35;;;;;;;3.67;3.08;;;23.60;76.20;;;;;;5036166;28;20203;-71
2022/09/06 09:24:06;;;;;;;3.15;2.92;;;23.60;76.30;;;;;;5034923;28;20592;-71
2022/09/06 09:26:46;;;;;;;3.05;2.85;;;23.60;76.10;;;;;;5038136;28;20179;-70
2022/09/06 09:29:14;;;;;;;3.20;2.90;;;23.60;76.20;;;;;;5038990;28;20186;-70
2022/09/06 09:31:49;;;;;;;3.35;2.70;;;23.60;76.30;;;;;;5037762;28;20183;-71
2022/09/06 09:34:38;;;;;;;3.60;3.28;;;23.60;76.20;;;;;;5035613;28;20206;-71
2022/09/06 09:37:23;;;;;;;3.40;2.90;;;23.60;76.00;;;;;;5042663;28;20171;-72
2022/09/06 09:39:54;;;;;;;3.15;2.85;;;23.60;76.20;;;;;;5018369;28;20208;-71
2022/09/06 09:42:34;;;;;;;3.40;3.00;;;23.60;76.30;;;;;;5035856;28;20621;-71
2022/09/06 09:45:06;;;;;;;5.38;2.80;;;23.60;76.10;;;;;;5036452;28;20256;-71
2022/09/06 09:47:33;;;;;;;4.80;2.90;;;23.60;76.60;;;;;;5035338;28;20234;-70
2022/09/06 09:49:58;;;;;;;3.47;3.17;;;23.60;76.80;;;;;;5033952;28;20249;-71
2022/09/06 09:52:30;;;;;;;2.88;2.65;;;23.60;76.80;;;;;;5035167;28;20191;-70
2022/09/06 09:55:04;;;;;;;3.47;2.85;;;23.60;76.80;;;;;;5036297;28;20199;-71
2022/09/06 09:57:44;;;;;;;6.30;3.85;;;23.60;77.10;;;;;;5037461;28;20183;-70
2022/09/06 10:00:12;;;;;;;5.65;3.92;;;23.60;77.30;;;;;;5035537;28;20203;-71
2022/09/06 10:02:40;;;;;;;7.13;3.85;;;23.60;77.60;;;;;;5033204;28;20265;-71
2022/09/06 10:05:12;;;;;;;4.40;3.67;;;23.60;78.00;;;;;;5036759;28;20314;-72
2022/09/06 10:07:57;;;;;;;5.45;4.03;;;23.70;79.00;;;;;;5035206;28;20203;-70
2022/09/06 10:10:28;;;;;;;7.55;4.45;;;23.60;79.00;;;;;;5036448;28;20582;-70
2022/09/06 10:13:18;;;;;;;10.15;4.45;;;23.70;80.40;;;;;;5035219;28;20183;-71
2022/09/06 10:15:45;;;;;;;5.50;3.78;;;23.70;81.10;;;;;;5035764;28;20313;-71
2022/09/06 10:18:19;;;;;;;4.55;4.05;;;23.80;82.50;;;;;;5052067;28;20194;-71
2022/09/06 10:21:01;;;;;;;5.53;4.20;;;23.80;82.70;;;;;;5035043;28;20206;-70
2022/09/06 10:24:11;;;;;;;4.93;3.25;;;23.80;82.90;;;;;;5031125;28;20230;-71
2022/09/06 10:26:51;;;;;;;7.30;4.07;;;23.80;83.10;;;;;;5033733;28;20190;-71
2022/09/06 10:29:46;;;;;;;6.05;3.60;;;23.80;83.50;;;;;;5034464;28;20202;-71
2022/09/06 10:32:43;;;;;;;4.60;3.58;;;23.80;83.50;;;;;;5012911;28;20269;-72
2022/09/06 10:35:15;;;;;;;4.75;3.42;;;23.80;83.30;;;;;;5014764;28;20251;-72
2022/09/06 10:38:31;;;;;;;5.75;3.50;;;23.80;83.40;;;;;;5027325;28;20202;-72
2022/09/06 10:41:32;;;;;;;5.00;3.10;;;23.80;83.60;;;;;;5032290;28;20246;-71
2022/09/06 10:44:09;;;;;;;3.88;3.47;;;23.80;83.60;;;;;;5023963;28;20647;-72
2022/09/06 10:46:36;;;;;;;4.68;3.67;;;23.80;83.70;;;;;;5032456;28;20669;-72
2022/09/06 10:49:02;;;;;;;5.85;3.53;;;23.80;83.70;;;;;;5034524;28;20190;-72
2022/09/06 10:51:32;;;;;;;4.53;3.70;;;23.80;84.10;;;;;;5033874;28;20199;-72
2022/09/06 10:54:13;;;;;;;8.75;3.88;;;23.80;84.10;;;;;;5031164;28;20230;-71
2022/09/06 10:57:01;;;;;;;13.00;4.35;;;23.80;84.40;;;;;;5015861;28;20199;-71
2022/09/06 10:59:35;;;;;;;5.68;3.65;;;23.80;84.50;;;;;;5034777;28;20191;-71
2022/09/06 11:02:38;;;;;;;5.53;3.67;;;23.80;84.50;;;;;;5035451;28;20175;-72
2022/09/06 11:05:12;;;;;;;9.52;3.92;;;23.80;84.40;;;;;;5020033;28;20187;-71
2022/09/06 11:07:44;;;;;;;5.57;3.42;;;23.80;84.20;;;;;;5036080;28;20218;-71
2022/09/06 11:10:22;;;;;;;7.88;4.05;;;23.80;84.50;;;;;;5036508;28;20211;-72
2022/09/06 11:13:08;;;;;;;6.18;3.40;;;23.80;84.10;;;;;;5019232;28;20221;-71
2022/09/06 11:16:05;;;;;;;5.13;3.28;;;23.80;84.00;;;;;;5017009;28;20180;-71
2022/09/06 11:19:04;;;;;;;5.28;3.22;;;23.80;84.30;;;;;;5017866;28;20191;-71
2022/09/06 11:21:59;;;;;;;6.80;3.45;;;23.80;84.10;;;;;;4999788;28;20310;-71
2022/09/06 11:25:10;;;;;;;4.40;2.95;;;23.80;83.60;;;;;;5016045;28;20191;-71
2022/09/06 11:27:41;;;;;;;6.80;3.15;;;23.80;83.50;;;;;;5017609;28;20303;-71
2022/09/06 11:30:15;;;;;;;6.28;4.05;;;23.80;83.70;;;;;;5000065;28;20215;-72
2022/09/06 11:32:48;;;;;;;3.85;3.28;;;23.80;83.20;;;;;;5017573;28;20188;-71
2022/09/06 11:35:31;;;;;;;5.50;3.17;;;23.80;83.10;;;;;;5032353;28;20176;-71
2022/09/06 11:38:02;;;;;;;3.95;3.15;;;23.80;82.90;;;;;;5016405;28;20177;-71
2022/09/06 11:40:43;;;;;;;4.05;2.97;;;23.80;82.90;;;;;;4999666;28;20212;-71
2022/09/06 11:43:45;;;;;;;5.20;3.30;;;23.80;82.60;;;;;;5015795;28;20183;-71
2022/09/06 11:46:34;;;;;;;5.95;3.25;;;23.80;82.60;;;;;;4999145;28;20193;-71
2022/09/06 11:49:32;;;;;;;6.18;2.90;;;23.80;82.90;;;;;;5015476;28;20303;-71
2022/09/06 11:51:58;;;;;;;5.55;2.90;;;23.80;82.50;;;;;;5004275;28;20196;-71
2022/09/06 11:54:46;;;;;;;8.45;3.45;;;23.80;82.30;;;;;;5015119;28;20208;-71
2022/09/06 11:57:15;;;;;;;5.15;3.40;;;23.80;82.40;;;;;;5015197;28;20609;-71
2022/09/06 11:59:59;;;;;;;5.10;3.17;;;23.80;82.30;;;;;;5015549;28;20278;-71
2022/09/06 12:02:39;;;;;;;3.55;2.92;;;23.80;82.10;;;;;;5019178;28;20191;-71
2022/09/06 12:05:08;;;;;;;4.47;2.70;;;23.80;82.30;;;;;;5044004;28;20233;-71
2022/09/06 12:07:54;;;;;;;3.78;2.83;;;23.80;82.40;;;;;;5035044;28;20198;-71
2022/09/06 12:10:29;;;;;;;3.75;2.72;;;23.80;82.00;;;;;;5035480;28;20211;-71
2022/09/06 12:12:56;;;;;;;3.97;3.05;;;23.80;81.70;;;;;;5034808;28;20202;-71
2022/09/06 12:15:50;;;;;;;4.97;3.10;;;23.80;81.60;;;;;;5035062;28;20187;-71
2022/09/06 12:18:47;;;;;;;2.75;2.42;;;23.80;81.40;;;;;;5051194;28;20191;-71
2022/09/06 12:21:36;;;;;;;5.28;2.80;;;23.80;81.70;;;;;;5036195;28;20727;-71
2022/09/06 12:24:04;;;;;;;4.07;2.70;;;23.80;81.60;;;;;;5034827;28;20191;-71
2022/09/06 12:27:07;;;;;;;4.40;3.13;;;23.80;81.30;;;;;;5032322;28;20175;-71
2022/09/06 12:29:32;;;;;;;3.35;3.03;;;23.80;81.40;;;;;;5023467;28;20300;-71
2022/09/06 12:32:00;;;;;;;3.22;2.92;;;23.80;81.00;;;;;;5014679;28;20739;-71
2022/09/06 12:34:33;;;;;;;4.03;2.60;;;23.80;81.10;;;;;;5050391;28;20242;-71
2022/09/06 12:37:08;;;;;;;3.38;2.50;;;23.80;81.10;;;;;;5035831;28;20194;-72
2022/09/06 12:39:34;;;;;;;3.38;3.08;;;23.80;81.00;;;;;;5035515;28;20206;-71
2022/09/06 12:42:05;;;;;;;6.18;3.00;;;23.80;81.20;;;;;;5018218;28;20285;-71
2022/09/06 12:44:41;;;;;;;4.47;2.90;;;23.80;81.30;;;;;;5033682;28;20270;-71
2022/09/06 12:47:35;;;;;;;3.92;2.80;;;23.90;81.40;;;;;;5034246;28;20199;-71
2022/09/06 12:50:24;;;;;;;4.50;2.88;;;23.80;81.00;;;;;;5034279;28;20225;-71
2022/09/06 12:52:59;;;;;;;2.95;2.60;;;23.90;81.10;;;;;;5029213;28;20192;-72
2022/09/06 12:55:32;;;;;;;4.47;3.08;;;23.90;80.70;;;;;;5045467;28;20179;-71
2022/09/06 12:58:06;;;;;;;3.30;2.63;;;23.90;80.60;;;;;;5034635;28;20180;-71
2022/09/06 13:00:39;;;;;;;4.43;2.70;;;23.90;80.60;;;;;;5033751;28;20199;-71
2022/09/06 13:03:30;;;;;;;3.00;2.47;;;23.90;80.60;;;;;;5033540;28;20172;-71
2022/09/06 13:06:01;;;;;;;3.05;2.75;;;23.90;80.70;;;;;;5017003;28;20241;-71
2022/09/06 13:08:46;;;;;;;4.18;2.47;;;23.90;80.80;;;;;;5034477;28;20222;-71
2022/09/06 13:11:21;;;;;;;4.00;2.70;;;23.90;80.60;;;;;;5034585;28;20313;-71
2022/09/06 13:13:51;;;;;;;3.90;2.83;;;23.90;80.30;;;;;;5033029;28;20302;-71
2022/09/06 13:16:32;;;;;;;3.05;2.55;;;23.90;80.20;;;;;;5033465;28;20210;-71
2022/09/06 13:19:34;;;;;;;4.32;2.67;;;23.90;80.10;;;;;;5013280;28;20729;-71